Impacts TAF Board INFO
FOR SITUATIONAL AWARENESS. NOT TO BE USED FOR FLIGHT PLANNING PURPOSES.
IDs:

KMEM - Memphis Intl, TN, US

Issued at 1731 UTC 11 Dec 2017
Updated at 1849 UTC 11 Dec 2017
Potential Impact None Slight Moderate High
Time1754Z 11/19Z 11/20Z 11/21Z 11/22Z 11/23Z 12/00Z 12/01Z 12/02Z 12/03Z 12/04Z 12/05Z 12/06Z 12/07Z>>
Type OBS PRVL PRVL PRVL PRVL PRVL PRVL PRVL PRVL PRVL PRVL PRVL PRVL PRVL
  [TEMP]  
VIS 10 >6 >6 >6 >6 >6 >6 >6 >6 >6 >6 >6 >6 >6
CIG -- -- -- -- -- -- -- -- -- 150 150 150 150 150
  [40]  
Cover CLR SKC SKC SKC SKC SKC SCT SCT SCT BKN BKN BKN BKN BKN
  [BKN]  
FltCat VFR VFR VFR VFR VFR VFR VFR VFR VFR VFR VFR VFR VFR VFR
  [VFR]  
WX -- -- -- -- -- -- -- -- -- -- -- -- -- --
  [--]  
WDir 220 220 220 220 220 220 260 260 260 310 310 310 310 310
[310]
WSpd 14 11 11 11 11 11 8 8 8 10 10 10 10 10
  [10]  
WGst 21 18 18 18 18 18 -- -- -- 16 16 16 16 16
  [16]  

Raw TAF
KMEM 111731Z 1118/1224 22011G18KT P6SM SKC
  FM120000 26008KT P6SM SCT150
  FM120300 31010G16KT P6SM SCT035 BKN150
  TEMPO 1207/1211 BKN040
  FM121400 33013G20KT P6SM FEW250
  FM122000 31009KT P6SM SKC


Raw METAR
KMEM 111754Z 22014G21KT 10SM CLR 17/M03 A3007 RMK AO2 SLP180 T01671033 10167 20011 58027
KMEM 111654Z 22007KT 10SM CLR 14/M02 A3012 RMK AO2 SLP199 T01441017
KMEM 111554Z 23006KT 10SM CLR 11/M01 A3015 RMK AO2 SLP210 T01111006

METAR Board
Radar Display
Forecast Discussion

FOR SITUATIONAL AWARENESS. NOT TO BE USED FOR FLIGHT PLANNING PURPOSES.